Latest Weather Observations for Canberra

IDN60801

Issued at 12:33 pm EDT Monday 26 October 2020 (issued every 10 minutes, with the page automatically refreshed every 10 minutes)

About weather observations | Map of weather stations | Latest weather observations for NSW | Other Formats
Station Details ID: 070351 Name: CANBERRA AIRPORT Lat: -35.31 Lon: 149.20 Height: 577.05 m
Data from the previous 72 hours. | See also: Recent months at Canberra
Date/Time
EDT
Temp
°C
App
Temp
°C
Dew
Point
°C
Rel
Hum
%
Delta-T
°C
Wind Press
QNH
hPa
Press
MSL
hPa
Rain since
9am
mm
Dir  Spd
km/h
Gust
km/h
Spd
kts
Gust
kts
26/12:30pm 9.1 5.0 7.9 92 0.6 SSE 19 28 10 15 1021.3 1020.7 6.4
26/12:00pm 8.2 4.2 6.8 91 0.7 SSE 17 32 9 17 1021.5 1020.9 5.4
26/11:30am 7.9 4.2 6.2 89 0.8 SE 15 22 8 12 1021.9 1021.3 3.4
26/11:00am 8.1 3.3 5.4 83 1.2 SSE 20 28 11 15 1021.9 1021.3 1.0
26/10:30am 8.2 1.7 4.6 78 1.6 SSE 28 35 15 19 1021.8 1021.2 0.0
26/10:08am 8.5 1.8 3.6 71 2.2 SSE 28 48 15 26 1021.7 1021.0 0.0
26/10:00am 8.7 3.5 3.3 69 2.4 SSE 20 30 11 16 1021.7 1021.0 0.0
26/09:30am 8.7 3.1 3.7 71 2.2 SSE 22 41 12 22 1021.7 1021.0 0.0
26/09:00am 8.4 3.4 4.6 77 1.7 SSE 20 32 11 17 1021.9 1021.3 5.6
26/08:30am 8.6 2.8 4.6 76 1.8 SSE 24 39 13 21 1021.5 1020.9 5.6
26/08:00am 8.4 2.3 5.0 79 1.6 SSE 26 37 14 20 1021.3 1020.7 5.6
26/07:30am 8.7 4.0 5.3 79 1.6 SSE 19 28 10 15 1021.1 1020.5 5.6
26/07:00am 8.7 4.1 5.6 81 1.4 SSE 19 28 10 15 1020.6 1020.0 5.6
26/06:50am 8.5 3.4 6.0 84 1.2 SSE 22 30 12 16 1020.4 1019.8 5.6
26/06:30am 8.4 3.4 6.4 87 1.0 SSE 22 33 12 18 1020.4 1019.8 5.6
26/06:00am 8.4 5.7 7.5 94 0.4 SSE 11 15 6 8 1020.0 1019.3 5.6
26/05:30am 8.4 3.6 7.2 92 0.6 S 22 28 12 15 1019.3 1018.7 5.4
26/05:20am 8.8 4.3 6.8 87 1.0 S 20 32 11 17 1019.3 1018.7 5.4
26/05:00am 9.1 3.6 6.0 81 1.5 SE 24 32 13 17 1018.9 1018.3 5.4
26/04:30am 9.4 3.1 5.8 78 1.7 SSE 28 39 15 21 1018.6 1017.9 5.4
26/04:00am 9.3 4.7 6.4 82 1.4 SE 20 30 11 16 1018.8 1018.2 5.4
26/03:30am 9.2 3.9 6.8 85 1.2 SE 24 37 13 20 1018.9 1018.3 5.4
26/03:00am 9.4 5.4 6.7 83 1.3 SE 17 28 9 15 1018.9 1018.3 5.4
26/02:30am 9.5 4.9 6.4 81 1.5 SSE 20 30 11 16 1019.0 1018.4 5.4
26/02:00am 9.7 5.7 6.6 81 1.5 SE 17 28 9 15 1019.1 1018.5 5.4
26/01:30am 9.4 4.8 6.7 83 1.3 SSE 20 33 11 18 1019.3 1018.7 5.4
26/01:00am 9.3 5.4 7.3 87 1.0 SSE 17 28 9 15 1019.5 1018.9 5.4
26/12:30am 9.0 5.6 7.8 92 0.6 SSE 15 22 8 12 1020.0 1019.3 5.4
26/12:00am 9.2 5.3 7.3 88 0.9 SE 17 24 9 13 1020.1 1019.4 5.2
 
Date/Time
EDT
Temp
°C
App
Temp
°C
Dew
Point
°C
Rel
Hum
%
Delta-T
°C
Wind Press
QNH
hPa
Press
MSL
hPa
Rain since
9am
mm
Dir  Spd
km/h
Gust
km/h
Spd
kts
Gust
kts
25/11:30pm 9.4 5.2 7.5 88 0.9 SE 19 28 10 15 1020.0 1019.3 4.6
25/11:00pm 9.4 5.7 7.8 90 0.8 SSE 17 24 9 13 1020.2 1019.5 4.4
25/10:40pm 9.8 5.8 8.2 90 0.8 SE 19 30 10 16 1020.2 1019.5 4.2
25/10:30pm 9.9 7.3 9.3 96 0.3 SE 13 20 7 11 1020.2 1019.5 4.0
25/10:17pm 9.9 7.4 9.6 98 0.2 SSE 13 17 7 9 1020.2 1019.5 3.4
25/10:00pm 9.9 6.9 9.3 96 0.3 SSE 15 19 8 10 1020.1 1019.4 3.2
25/09:30pm 10.0 6.9 8.9 93 0.6 SSE 15 19 8 10 1019.7 1019.1 2.4
25/09:00pm 10.1 7.3 8.7 91 0.7 SE 13 19 7 10 1019.2 1018.6 2.2
25/08:30pm 10.2 7.5 8.8 91 0.7 SE 13 20 7 11 1019.0 1018.4 2.0
25/08:00pm 10.3 8.8 9.1 92 0.6 S 7 9 4 5 1018.8 1018.2 1.8
25/07:30pm 10.1 8.1 8.7 91 0.7 S 9 13 5 7 1018.5 1017.8 1.6
25/07:00pm 10.6 7.5 8.9 89 0.9 S 15 19 8 10 1017.7 1017.1 0.8
25/06:50pm 10.8 7.3 8.7 87 1.1 S 17 19 9 10 1017.5 1016.9 0.8
25/06:30pm 11.0 8.5 9.6 91 0.7 S 13 19 7 10 1017.2 1016.6 0.6
25/06:00pm 10.6 8.0 9.4 92 0.6 S 13 17 7 9 1016.8 1016.1 0.4
25/05:30pm 10.6 5.7 8.4 86 1.1 S 24 30 13 16 1016.6 1015.9 0.2
25/05:00pm 10.8 6.9 8.7 87 1.1 S 19 26 10 14 1016.3 1015.6 0.0
25/04:30pm 11.0 6.0 8.1 82 1.5 S 24 32 13 17 1016.2 1015.5 0.0
25/04:00pm 11.5 7.6 8.5 82 1.5 S 19 26 10 14 1015.8 1015.2 0.0
25/03:52pm 11.7 8.2 8.6 81 1.6 SSE 17 24 9 13 1015.7 1015.1 0.0
25/03:30pm 11.6 7.0 8.1 79 1.8 SE 22 33 12 18 1015.6 1014.9 0.0
25/03:00pm 12.8 8.0 7.5 70 2.7 SE 22 32 12 17 1015.4 1014.7 0.0
25/02:30pm 13.0 8.7 7.0 67 3.0 SSE 19 26 10 14 1015.2 1014.5 0.0
25/02:00pm 13.1 8.3 7.5 69 2.8 SSE 22 30 12 16 1015.2 1014.5 0.0
25/01:30pm 11.8 7.3 7.1 73 2.3 SSE 20 32 11 17 1015.5 1014.8 0.0
25/01:00pm 11.2 5.9 6.7 74 2.2 S 24 32 13 17 1015.5 1014.8 0.0
25/12:30pm 11.1 6.3 7.4 78 1.8 S 22 30 12 16 1015.6 1014.9 0.0
25/12:00pm 10.0 5.5 6.2 77 1.8 S 19 26 10 14 1015.7 1015.1 0.0
25/11:30am 9.4 4.7 5.9 79 1.7 SSE 20 30 11 16 1015.9 1015.3 0.0
25/11:29am 9.5 4.8 6.2 80 1.6 SSE 20 30 11 16 1015.9 1015.3 0.0
25/11:00am 9.4 5.3 6.1 80 1.6 SSE 17 24 9 13 1015.7 1015.1 0.0
25/10:46am 9.2 5.0 5.9 80 1.6 SSE 17 26 9 14 1015.7 1015.1 0.0
25/10:44am 9.3 5.2 6.0 80 1.6 SSE 17 26 9 14 1015.7 1015.1 0.0
25/10:30am 9.1 4.4 6.2 82 1.4 S 20 30 11 16 1015.6 1014.9 0.0
25/10:27am 9.0 4.3 6.1 82 1.4 S 20 30 11 16 1015.6 1014.9 0.0
25/10:00am 8.3 3.9 6.6 89 0.8 SSE 19 28 10 15 1015.5 1014.8 0.0
25/09:48am 7.8 3.3 6.3 90 0.7 SSE 19 28 10 15 1015.6 1014.9 0.0
25/09:34am 7.5 2.7 5.6 88 0.9 SSE 20 28 11 15 1015.3 1014.6 0.0
25/09:30am 7.7 3.2 6.2 90 0.7 SSE 19 26 10 14 1015.3 1014.6 0.0
25/09:00am 7.3 2.0 5.0 85 1.0 SSE 22 30 12 16 1014.9 1014.2 10.6
25/08:30am 6.8 1.4 4.5 85 1.0 SSE 22 32 12 17 1014.5 1013.8 10.6
25/08:00am 6.5 1.6 5.0 90 0.7 SSE 20 28 11 15 1014.1 1013.4 10.6
25/07:30am 6.5 2.1 5.0 90 0.7 SSE 17 22 9 12 1013.6 1012.9 10.6
25/07:28am 6.4 2.0 5.0 91 0.6 SSE 17 24 9 13 1013.7 1013.0 10.6
25/07:00am 6.5 2.5 5.1 91 0.6 SSE 15 28 8 15 1012.9 1012.2 10.6
25/06:30am 7.1 3.8 6.2 94 0.4 SSE 13 19 7 10 1012.2 1011.5 10.6
25/06:00am 7.9 4.4 7.3 96 0.3 SSE 15 26 8 14 1011.5 1010.8 9.8
25/05:30am 8.3 5.4 8.0 98 0.1 SSE 13 17 7 9 1010.8 1010.0 9.8
25/05:22am 8.4 5.9 8.3 99 0.0 SSE 11 19 6 10 1010.7 1009.9 9.8
25/05:08am 8.3 6.2 8.2 99 0.0 SSE 9 11 5 6 1010.4 1009.7 9.4
25/05:00am 8.4 6.3 8.3 99 0.0 SSE 9 13 5 7 1010.4 1009.7 9.4
25/04:30am 8.3 5.4 8.2 99 0.0 SSE 13 19 7 10 1009.9 1009.2 9.2
25/04:21am 8.3 5.0 8.2 99 0.0 SSE 15 20 8 11 1009.9 1009.2 9.0
25/04:00am 8.5 5.3 8.4 99 0.0 S 15 19 8 10 1009.8 1009.1 9.0
25/03:59am 8.5 5.3 8.4 99 0.0 S 15 19 8 10 1009.8 1009.1 8.8
25/03:30am 8.9 6.0 8.1 95 0.4 S 13 17 7 9 1009.4 1008.6 8.8
25/03:13am 9.0 6.5 8.2 95 0.4 SSE 11 15 6 8 1009.3 1008.5 8.6
25/03:00am 9.0 6.5 8.2 95 0.4 SSE 11 15 6 8 1009.2 1008.4 8.6
25/02:30am 9.0 7.0 8.6 97 0.2 SE 9 13 5 7 1009.0 1008.2 8.6
25/02:00am 9.2 6.9 8.9 98 0.2 SSE 11 15 6 8 1009.0 1008.2 8.4
25/01:30am 9.2 6.9 9.1 99 0.1 SSE 11 17 6 9 1009.0 1008.2 8.4
25/01:00am 9.3 6.6 9.0 98 0.2 SSE 13 17 7 9 1008.9 1008.1 8.0
25/12:30am 9.6 6.7 9.5 99 0.1 S 15 20 8 11 1008.8 1008.0 8.0
25/12:25am 9.6 6.6 9.3 98 0.2 S 15 20 8 11 1008.8 1008.0 8.0
25/12:04am 9.8 7.2 9.3 97 0.3 S 13 19 7 10 1008.6 1007.9 7.8
25/12:00am 10.0 7.5 9.7 98 0.2 S 13 17 7 9 1008.6 1007.9 7.8
 
Date/Time
EDT
Temp
°C
App
Temp
°C
Dew
Point
°C
Rel
Hum
%
Delta-T
°C
Wind Press
QNH
hPa
Press
MSL
hPa
Rain since
9am
mm
Dir  Spd
km/h
Gust
km/h
Spd
kts
Gust
kts
24/11:41pm 10.1 7.3 10.0 99 0.1 SSE 15 22 8 12 1008.5 1007.8 7.6
24/11:30pm 10.3 7.5 10.1 99 0.1 SSE 15 20 8 11 1008.4 1007.7 7.6
24/11:10pm 10.4 8.4 10.2 99 0.1 SSE 11 17 6 9 1008.3 1007.6 7.4
24/11:00pm 10.6 9.1 10.4 99 0.1 SSE 9 15 5 8 1008.3 1007.6 7.2
24/10:47pm 10.9 7.9 10.7 99 0.1 SSE 17 24 9 13 1008.1 1007.3 7.0
24/10:30pm 11.1 7.5 10.6 97 0.3 SSE 20 30 11 16 1007.8 1007.0 6.4
24/10:00pm 12.3 8.9 11.2 93 0.6 S 20 32 11 17 1007.3 1006.5 6.4
24/09:30pm 14.8 14.6 14.6 99 0.1 NNW 9 13 5 7 1006.3 1005.5 6.0
24/09:24pm 14.8 14.2 14.6 99 0.1 N 11 13 6 7 1006.0 1005.2 6.0
24/09:00pm 15.2 15.1 15.0 99 0.1 WNW 9 9 5 5 1005.3 1004.5 6.0
24/08:30pm 15.7 15.8 15.5 99 0.1 W 9 11 5 6 1004.8 1004.0 6.0
24/08:00pm 16.4 15.2 16.2 99 0.1 NE 17 24 9 13 1004.1 1003.3 5.6
24/07:30pm 16.6 15.5 16.4 99 0.1 NNE 17 24 9 13 1004.3 1003.5 5.2
24/07:00pm 16.7 16.3 16.2 97 0.3 NNE 13 15 7 8 1004.2 1003.4 3.6
24/06:30pm 17.4 17.0 15.2 87 1.3 N 11 15 6 8 1003.8 1003.0 2.8
24/06:21pm 17.5 17.2 15.5 88 1.2 N 11 15 6 8 1003.9 1003.1 2.8
24/06:00pm 17.6 16.9 15.4 87 1.3 NNW 13 17 7 9 1003.6 1002.7 2.8
24/05:30pm 18.2 18.6 16.4 89 1.1 NW 9 13 5 7 1003.0 1002.2 2.6
24/05:06pm 18.1 17.0 16.3 89 1.1 N 17 19 9 10 1002.7 1001.9 2.6
24/05:00pm 18.2 17.1 16.4 89 1.1 N 17 22 9 12 1002.6 1001.8 2.6
24/04:30pm 18.3 17.9 16.3 88 1.2 N 13 17 7 9 1002.6 1001.8 2.6
24/04:00pm 18.3 17.9 16.1 87 1.3 NNW 13 15 7 8 1002.5 1001.7 2.6
24/03:30pm 18.9 15.9 14.8 77 2.5 NW 24 30 13 16 1003.4 1002.5 2.4
24/03:00pm 19.7 17.6 14.7 73 3.0 NNW 19 28 10 15 1003.1 1002.3 2.4
24/02:30pm 19.9 17.5 15.3 75 2.8 NNW 22 28 12 15 1003.4 1002.5 2.4
24/02:07pm 20.1 17.7 15.5 75 2.8 WNW 22 33 12 18 1003.7 1002.8 2.4
24/02:00pm 20.2 18.3 15.2 73 3.0 NW 19 28 10 15 1003.7 1002.8 2.4
24/01:56pm 20.2 18.2 15.4 74 2.9 WNW 20 30 11 16 1003.8 1003.0 2.4
24/01:51pm 20.0 17.5 15.2 74 2.9 WNW 22 32 12 17 1003.8 1003.0 2.4
24/01:36pm 19.6 17.8 15.9 79 2.3 NW 20 30 11 16 1003.9 1003.1 2.4
24/01:30pm 19.7 18.0 16.2 80 2.1 NNW 20 30 11 16 1003.9 1003.1 2.4
24/01:00pm 19.3 16.9 16.5 84 1.7 NNW 24 35 13 19 1004.4 1003.6 2.4
24/12:40pm 18.6 15.2 16.8 89 1.1 NNW 30 39 16 21 1004.6 1003.8 2.4
24/12:30pm 18.2 14.7 16.5 90 1.0 NNW 30 41 16 22 1004.8 1004.0 2.2
24/12:00pm 18.3 15.3 16.8 91 0.9 NNW 28 39 15 21 1004.9 1004.1 2.2
24/11:30am 18.0 14.3 16.0 88 1.2 NNW 30 35 16 19 1005.4 1004.6 2.2
24/11:01am 17.8 14.2 17.2 96 0.4 NNW 32 43 17 23 1005.3 1004.5 2.2
24/11:00am 17.8 14.2 17.2 96 0.4 NNW 32 43 17 23 1005.3 1004.5 2.2
24/10:47am 17.2 14.3 17.0 99 0.1 NNW 28 37 15 20 1005.4 1004.6 2.0
24/10:30am 17.8 15.9 16.7 93 0.7 NNW 22 35 12 19 1005.4 1004.6 1.4
24/10:00am 17.5 14.7 17.3 99 0.1 NNW 28 35 15 19 1005.7 1004.9 1.4
24/09:49am 17.2 13.8 16.7 97 0.3 NNW 30 50 16 27 1005.8 1005.0 1.0
24/09:41am 17.1 13.2 16.5 96 0.4 NNW 32 50 17 27 1005.8 1005.0 0.8
24/09:33am 17.0 14.0 16.7 98 0.2 NNW 28 35 15 19 1005.9 1005.1 0.6
24/09:30am 17.3 14.6 16.7 96 0.4 NNW 26 35 14 19 1005.8 1005.0 0.2
24/09:00am 17.7 16.5 17.1 96 0.4 NNW 19 28 10 15 1005.9 1005.1 16.4
24/08:30am 17.6 16.3 15.9 90 1.0 NNW 17 26 9 14 1005.9 1005.1 16.2
24/08:00am 17.2 17.5 16.1 93 0.7 NW 9 13 5 7 1006.1 1005.3 16.2
24/07:30am 16.7 15.9 16.1 96 0.4 NNW 15 22 8 12 1006.0 1005.2 16.2
24/07:28am 16.5 15.7 16.2 98 0.2 NNW 15 22 8 12 1006.0 1005.2 16.2
24/07:22am 16.5 15.7 16.0 97 0.3 NNW 15 22 8 12 1005.9 1005.1 16.2
24/07:06am 16.3 16.2 16.0 98 0.2 NW 11 17 6 9 1005.9 1005.1 16.2
24/07:00am 15.9 16.1 15.7 99 0.1 NW 9 13 5 7 1005.9 1005.1 16.2
24/06:53am 15.9 16.1 15.7 99 0.1 NW 9 11 5 6 1005.8 1005.0 16.2
24/06:30am 15.9 14.9 15.7 99 0.1 NNW 15 19 8 10 1005.7 1004.9 16.2
24/06:00am 15.8 15.9 15.6 99 0.1 N 9 15 5 8 1005.4 1004.6 16.2
24/05:38am 15.6 16.2 15.4 99 0.1 NNE 6 9 3 5 1005.3 1004.5 16.0
24/05:30am 15.7 17.5 15.5 99 0.1 CALM 0 0 0 0 1005.4 1004.6 15.8
24/05:25am 15.8 17.6 15.6 99 0.1 CALM 0 0 0 0 1005.3 1004.5 15.8
24/05:00am 15.8 16.3 15.6 99 0.1 NNE 7 11 4 6 1005.7 1004.9 14.6
24/04:50am 15.9 16.1 15.7 99 0.1 N 9 13 5 7 1005.7 1004.9 14.6
24/04:37am 16.0 15.8 15.8 99 0.1 N 11 13 6 7 1005.9 1005.1 14.4
24/04:30am 16.0 15.5 15.8 99 0.1 NNW 13 19 7 10 1006.0 1005.2 14.4
24/04:16am 15.8 15.6 15.6 99 0.1 NNW 11 17 6 9 1006.2 1005.4 14.4
24/04:00am 15.8 14.8 15.6 99 0.1 NNW 15 24 8 13 1006.5 1005.7 14.4
24/03:54am 15.8 15.2 15.6 99 0.1 N 13 24 7 13 1006.5 1005.7 14.4
24/03:30am 15.7 14.7 15.5 99 0.1 NNW 15 20 8 11 1007.0 1006.2 14.4
24/03:13am 15.7 15.0 15.5 99 0.1 N 13 17 7 9 1007.0 1006.2 14.4
24/03:03am 15.8 15.2 15.6 99 0.1 N 13 20 7 11 1006.8 1006.1 14.4
24/03:00am 15.8 15.2 15.6 99 0.1 N 13 20 7 11 1006.8 1006.1 14.4
24/02:47am 15.9 14.6 15.7 99 0.1 N 17 22 9 12 1007.2 1006.4 14.4
24/02:30am 16.2 15.0 16.0 99 0.1 NNW 17 26 9 14 1007.6 1006.8 13.8
24/02:00am 16.1 16.0 16.1 100 0.0 NE 11 17 6 9 1007.4 1006.6 13.6
24/01:30am 15.8 16.0 15.8 100 0.0 ENE 9 13 5 7 1008.3 1007.6 13.6
24/01:00am 15.8 16.0 15.8 100 0.0 ENE 9 9 5 5 1009.2 1008.4 13.0
24/12:39am 16.0 15.9 16.0 100 0.0 NE 11 13 6 7 1009.1 1008.3 12.4
24/12:30am 16.2 17.9 16.2 100 0.0 WNW 2 11 1 6 1009.2 1008.4 12.0
24/12:00am 16.3 15.9 16.3 100 0.0 W 13 17 7 9 1009.8 1009.1 8.8
 
Date/Time
EDT
Temp
°C
App
Temp
°C
Dew
Point
°C
Rel
Hum
%
Delta-T
°C
Wind Press
QNH
hPa
Press
MSL
hPa
Rain since
9am
mm
Dir  Spd
km/h
Gust
km/h
Spd
kts
Gust
kts
23/11:47pm 16.5 16.6 16.5 100 0.0 WSW 11 15 6 8 1009.7 1008.9 4.6
23/11:30pm 16.6 16.4 16.6 100 0.0 WSW 13 17 7 9 1009.3 1008.5 3.2
23/11:00pm 16.3 18.3 16.1 99 0.1 CALM 0 0 0 0 1008.8 1008.0 3.0
23/10:30pm 16.3 16.7 16.3 100 0.0 E 9 13 5 7 1009.3 1008.5 3.0
23/10:00pm 16.1 16.8 16.1 100 0.0 SSE 7 9 4 5 1009.4 1008.6 3.0
23/09:30pm 16.2 16.1 16.0 99 0.1 S 11 13 6 7 1009.9 1009.2 3.0
23/09:00pm 16.3 16.2 16.1 99 0.1 ENE 11 20 6 11 1010.2 1009.5 2.8
23/08:50pm 16.3 15.1 16.0 98 0.2 NNE 17 24 9 13 1010.1 1009.4 2.2
23/08:47pm 16.4 15.2 16.1 98 0.2 N 17 22 9 12 1010.2 1009.5 2.0
23/08:43pm 16.5 14.9 16.0 97 0.3 NNW 19 33 10 18 1010.5 1009.8 2.0
23/08:31pm 16.4 11.1 15.3 93 0.7 NW 37 70 20 38 1010.4 1009.7 1.4
23/08:30pm 16.5 10.7 15.0 91 0.9 NW 39 70 21 38 1010.4 1009.7 1.0
23/08:24pm 17.1 13.7 13.8 81 1.9 NNW 24 70 13 38 1010.4 1009.7 0.4
23/08:22pm 17.7 15.5 13.4 76 2.5 N 17 70 9 38 1010.4 1009.7 0.2
23/08:21pm 18.6 17.6 13.5 72 3.0 N 11 57 6 31 1010.3 1009.6 0.0
23/08:00pm 21.0 20.8 12.9 60 4.7 NNE 6 9 3 5 1009.0 1008.2 0.0
23/07:30pm 21.5 20.3 12.9 58 5.0 NNE 11 11 6 6 1008.8 1008.0 0.0
23/07:00pm 21.7 21.2 13.9 61 4.7 N 9 11 5 6 1008.5 1007.8 0.0
23/06:30pm 22.2 20.8 13.3 57 5.3 NNW 13 19 7 10 1008.6 1007.9 0.0
23/06:00pm 23.3 20.3 12.0 49 6.6 NNW 19 22 10 12 1008.8 1008.0 0.0
23/05:30pm 24.0 20.8 12.0 47 7.0 N 20 30 11 16 1008.6 1007.9 0.0
23/05:00pm 24.5 20.8 12.8 48 6.9 N 24 30 13 16 1008.6 1007.9 0.0
23/04:30pm 24.6 21.0 12.9 48 6.9 N 24 30 13 16 1008.6 1007.9 0.0
23/04:00pm 25.2 22.5 13.4 48 7.1 N 20 32 11 17 1008.9 1008.1 0.0
23/03:30pm 26.2 22.9 14.0 47 7.4 NNW 24 35 13 19 1009.5 1008.7 0.0
23/03:00pm 26.0 22.6 14.8 50 6.9 N 26 33 14 18 1010.0 1009.3 0.0
23/02:30pm 25.1 22.2 13.0 47 7.2 N 20 33 11 18 1010.4 1009.7 0.0
23/02:00pm 24.8 22.4 14.3 52 6.4 NNW 20 28 11 15 1010.9 1010.1 0.0
23/01:30pm 24.6 23.0 15.0 55 5.9 N 17 26 9 14 1011.3 1010.6 0.0
23/01:00pm 24.4 23.3 15.3 57 5.6 NNW 15 20 8 11 1012.0 1011.3 0.0

Other formats

Comma delimited format used in spreadsheet applications
http://www.bom.gov.au/fwo/IDN60801/IDN60801.94926.axf

JavaScript Object Notation format (JSON) in row-major order
http://www.bom.gov.au/fwo/IDN60801/IDN60801.94926.json

Data quality

Most of these data are generated automatically and are frequently updated. Quality checks on data are not normally performed. It is possible for incorrect values to appear. Refer to information at About Latest Weather Observations and please check the disclaimer before using these data.